sensor_id;sensor_type;location;lat;lon;timestamp;P1;durP1;ratioP1;P2;durP2;ratioP2
11098;SDS011;12223;42.650;23.364;2023-02-10T00:00:20;22.17;;;14.77;;
11098;SDS011;12223;42.650;23.364;2023-02-10T00:02:47;19.53;;;13.77;;
11098;SDS011;12223;42.650;23.364;2023-02-10T00:05:13;28.50;;;16.30;;
11098;SDS011;12223;42.650;23.364;2023-02-10T00:07:40;29.23;;;18.33;;
11098;SDS011;12223;42.650;23.364;2023-02-10T00:10:08;27.57;;;19.07;;
11098;SDS011;12223;42.650;23.364;2023-02-10T00:12:35;23.87;;;18.20;;
11098;SDS011;12223;42.650;23.364;2023-02-10T00:15:03;24.60;;;21.00;;
11098;SDS011;12223;42.650;23.364;2023-02-10T00:17:31;28.37;;;18.40;;
11098;SDS011;12223;42.650;23.364;2023-02-10T00:19:58;27.23;;;17.30;;
11098;SDS011;12223;42.650;23.364;2023-02-10T00:22:25;31.03;;;17.97;;
11098;SDS011;12223;42.650;23.364;2023-02-10T00:24:51;29.57;;;19.50;;
11098;SDS011;12223;42.650;23.364;2023-02-10T00:27:19;28.57;;;17.63;;
11098;SDS011;12223;42.650;23.364;2023-02-10T00:29:49;23.00;;;16.47;;
11098;SDS011;12223;42.650;23.364;2023-02-10T00:32:16;26.80;;;16.43;;
11098;SDS011;12223;42.650;23.364;2023-02-10T00:34:43;21.37;;;14.57;;
11098;SDS011;12223;42.650;23.364;2023-02-10T00:37:10;24.27;;;14.93;;
11098;SDS011;12223;42.650;23.364;2023-02-10T00:39:38;25.20;;;15.00;;
11098;SDS011;12223;42.650;23.364;2023-02-10T00:42:05;21.77;;;15.37;;
11098;SDS011;12223;42.650;23.364;2023-02-10T00:44:33;26.97;;;17.53;;
11098;SDS011;12223;42.650;23.364;2023-02-10T00:47:00;35.87;;;25.00;;
11098;SDS011;12223;42.650;23.364;2023-02-10T00:49:27;28.07;;;18.53;;
11098;SDS011;12223;42.650;23.364;2023-02-10T00:51:53;32.37;;;18.93;;
11098;SDS011;12223;42.650;23.364;2023-02-10T00:54:20;37.23;;;20.37;;
11098;SDS011;12223;42.650;23.364;2023-02-10T00:56:47;36.07;;;22.87;;
11098;SDS011;12223;42.650;23.364;2023-02-10T00:59:13;35.80;;;23.57;;
11098;SDS011;12223;42.650;23.364;2023-02-10T01:01:43;29.17;;;18.03;;
11098;SDS011;12223;42.650;23.364;2023-02-10T01:04:09;44.67;;;23.53;;
11098;SDS011;12223;42.650;23.364;2023-02-10T01:06:36;40.50;;;21.23;;
11098;SDS011;12223;42.650;23.364;2023-02-10T01:09:03;36.07;;;20.63;;
11098;SDS011;12223;42.650;23.364;2023-02-10T01:11:30;26.90;;;17.73;;
11098;SDS011;12223;42.650;23.364;2023-02-10T01:13:57;25.23;;;17.13;;
11098;SDS011;12223;42.650;23.364;2023-02-10T01:16:24;28.90;;;16.73;;
11098;SDS011;12223;42.650;23.364;2023-02-10T01:18:52;28.63;;;16.63;;
11098;SDS011;12223;42.650;23.364;2023-02-10T01:21:19;31.37;;;19.60;;
11098;SDS011;12223;42.650;23.364;2023-02-10T01:23:47;35.83;;;18.33;;
11098;SDS011;12223;42.650;23.364;2023-02-10T01:26:14;30.97;;;17.73;;
11098;SDS011;12223;42.650;23.364;2023-02-10T01:28:41;37.30;;;19.23;;
11098;SDS011;12223;42.650;23.364;2023-02-10T01:31:09;29.33;;;16.07;;
11098;SDS011;12223;42.650;23.364;2023-02-10T01:33:37;33.40;;;20.27;;
11098;SDS011;12223;42.650;23.364;2023-02-10T01:36:07;28.47;;;16.17;;
11098;SDS011;12223;42.650;23.364;2023-02-10T01:38:35;24.20;;;16.33;;
11098;SDS011;12223;42.650;23.364;2023-02-10T01:41:02;28.67;;;16.53;;
11098;SDS011;12223;42.650;23.364;2023-02-10T01:43:30;23.27;;;14.50;;
11098;SDS011;12223;42.650;23.364;2023-02-10T01:45:57;17.07;;;12.20;;
11098;SDS011;12223;42.650;23.364;2023-02-10T01:48:24;26.77;;;16.93;;
11098;SDS011;12223;42.650;23.364;2023-02-10T01:50:52;19.93;;;13.43;;
11098;SDS011;12223;42.650;23.364;2023-02-10T01:53:22;22.73;;;15.40;;
11098;SDS011;12223;42.650;23.364;2023-02-10T01:55:52;25.17;;;15.47;;
11098;SDS011;12223;42.650;23.364;2023-02-10T01:58:23;22.73;;;16.10;;
11098;SDS011;12223;42.650;23.364;2023-02-10T02:00:52;22.13;;;15.13;;
11098;SDS011;12223;42.650;23.364;2023-02-10T02:03:19;22.93;;;15.67;;
11098;SDS011;12223;42.650;23.364;2023-02-10T02:05:46;28.10;;;17.40;;
11098;SDS011;12223;42.650;23.364;2023-02-10T02:08:14;24.40;;;16.37;;
11098;SDS011;12223;42.650;23.364;2023-02-10T02:11:00;23.50;;;14.07;;
11098;SDS011;12223;42.650;23.364;2023-02-10T02:13:35;19.87;;;12.10;;
11098;SDS011;12223;42.650;23.364;2023-02-10T02:16:15;21.70;;;12.93;;
11098;SDS011;12223;42.650;23.364;2023-02-10T02:18:50;16.83;;;12.50;;
11098;SDS011;12223;42.650;23.364;2023-02-10T02:21:29;21.07;;;13.17;;
11098;SDS011;12223;42.650;23.364;2023-02-10T02:24:18;16.50;;;11.83;;
11098;SDS011;12223;42.650;23.364;2023-02-10T02:27:08;16.67;;;11.23;;
11098;SDS011;12223;42.650;23.364;2023-02-10T02:29:49;21.17;;;12.97;;
11098;SDS011;12223;42.650;23.364;2023-02-10T02:32:31;30.03;;;18.33;;
11098;SDS011;12223;42.650;23.364;2023-02-10T02:35:01;23.03;;;14.40;;
11098;SDS011;12223;42.650;23.364;2023-02-10T02:37:32;21.30;;;12.70;;
11098;SDS011;12223;42.650;23.364;2023-02-10T02:40:02;20.73;;;13.67;;
11098;SDS011;12223;42.650;23.364;2023-02-10T02:42:30;17.27;;;12.23;;
11098;SDS011;12223;42.650;23.364;2023-02-10T02:44:59;15.57;;;11.07;;
11098;SDS011;12223;42.650;23.364;2023-02-10T02:47:34;16.33;;;14.23;;
11098;SDS011;12223;42.650;23.364;2023-02-10T02:50:20;20.93;;;15.43;;
11098;SDS011;12223;42.650;23.364;2023-02-10T02:52:54;23.87;;;15.00;;
11098;SDS011;12223;42.650;23.364;2023-02-10T02:55:31;27.77;;;19.73;;
11098;SDS011;12223;42.650;23.364;2023-02-10T02:58:10;38.70;;;34.83;;
11098;SDS011;12223;42.650;23.364;2023-02-10T03:00:42;20.27;;;14.87;;
11098;SDS011;12223;42.650;23.364;2023-02-10T03:03:13;25.30;;;16.07;;
11098;SDS011;12223;42.650;23.364;2023-02-10T03:05:40;28.57;;;16.43;;
11098;SDS011;12223;42.650;23.364;2023-02-10T03:08:07;24.60;;;15.27;;
11098;SDS011;12223;42.650;23.364;2023-02-10T03:10:34;20.90;;;14.53;;
11098;SDS011;12223;42.650;23.364;2023-02-10T03:13:00;21.57;;;15.17;;
11098;SDS011;12223;42.650;23.364;2023-02-10T03:15:27;17.17;;;15.00;;
11098;SDS011;12223;42.650;23.364;2023-02-10T03:17:55;27.20;;;24.30;;
11098;SDS011;12223;42.650;23.364;2023-02-10T03:20:23;26.63;;;24.20;;
11098;SDS011;12223;42.650;23.364;2023-02-10T03:22:50;25.87;;;17.17;;
11098;SDS011;12223;42.650;23.364;2023-02-10T03:25:17;31.67;;;28.67;;
11098;SDS011;12223;42.650;23.364;2023-02-10T03:27:44;22.57;;;17.33;;
11098;SDS011;12223;42.650;23.364;2023-02-10T03:30:11;29.63;;;17.20;;
11098;SDS011;12223;42.650;23.364;2023-02-10T03:32:37;30.67;;;20.30;;
11098;SDS011;12223;42.650;23.364;2023-02-10T03:35:05;36.77;;;23.03;;
11098;SDS011;12223;42.650;23.364;2023-02-10T03:37:33;36.03;;;23.97;;
11098;SDS011;12223;42.650;23.364;2023-02-10T03:40:00;35.67;;;24.10;;
11098;SDS011;12223;42.650;23.364;2023-02-10T03:42:27;34.83;;;26.03;;
11098;SDS011;12223;42.650;23.364;2023-02-10T03:44:53;35.67;;;28.87;;
11098;SDS011;12223;42.650;23.364;2023-02-10T03:47:20;29.53;;;21.93;;
11098;SDS011;12223;42.650;23.364;2023-02-10T03:49:47;27.97;;;17.70;;
11098;SDS011;12223;42.650;23.364;2023-02-10T03:52:13;31.57;;;20.13;;
11098;SDS011;12223;42.650;23.364;2023-02-10T03:54:42;27.67;;;18.50;;
11098;SDS011;12223;42.650;23.364;2023-02-10T03:57:09;26.47;;;21.83;;
11098;SDS011;12223;42.650;23.364;2023-02-10T03:59:36;31.43;;;25.33;;
11098;SDS011;12223;42.650;23.364;2023-02-10T04:02:03;64.13;;;59.13;;
11098;SDS011;12223;42.650;23.364;2023-02-10T04:04:30;39.23;;;23.37;;
11098;SDS011;12223;42.650;23.364;2023-02-10T04:06:57;30.00;;;17.23;;
11098;SDS011;12223;42.650;23.364;2023-02-10T04:09:24;36.67;;;23.70;;
11098;SDS011;12223;42.650;23.364;2023-02-10T04:11:52;34.97;;;30.17;;
11098;SDS011;12223;42.650;23.364;2023-02-10T04:14:19;36.60;;;29.70;;
11098;SDS011;12223;42.650;23.364;2023-02-10T04:16:46;77.80;;;72.23;;
11098;SDS011;12223;42.650;23.364;2023-02-10T04:19:12;54.50;;;49.63;;
11098;SDS011;12223;42.650;23.364;2023-02-10T04:21:39;39.10;;;28.87;;
11098;SDS011;12223;42.650;23.364;2023-02-10T04:24:06;31.93;;;23.77;;
11098;SDS011;12223;42.650;23.364;2023-02-10T04:26:33;33.23;;;20.70;;
11098;SDS011;12223;42.650;23.364;2023-02-10T04:29:01;31.97;;;18.77;;
11098;SDS011;12223;42.650;23.364;2023-02-10T04:31:27;32.30;;;22.40;;
11098;SDS011;12223;42.650;23.364;2023-02-10T04:33:54;34.70;;;21.00;;
11098;SDS011;12223;42.650;23.364;2023-02-10T04:36:21;37.00;;;22.30;;
11098;SDS011;12223;42.650;23.364;2023-02-10T04:38:48;33.37;;;20.73;;
11098;SDS011;12223;42.650;23.364;2023-02-10T04:41:15;38.53;;;27.63;;
11098;SDS011;12223;42.650;23.364;2023-02-10T04:43:42;35.90;;;17.50;;
11098;SDS011;12223;42.650;23.364;2023-02-10T04:46:10;31.30;;;21.80;;
11098;SDS011;12223;42.650;23.364;2023-02-10T04:48:36;33.93;;;20.87;;
11098;SDS011;12223;42.650;23.364;2023-02-10T04:51:06;58.40;;;53.63;;
11098;SDS011;12223;42.650;23.364;2023-02-10T04:53:34;28.97;;;20.87;;
11098;SDS011;12223;42.650;23.364;2023-02-10T04:56:01;54.13;;;49.03;;
11098;SDS011;12223;42.650;23.364;2023-02-10T04:58:28;49.07;;;45.17;;
11098;SDS011;12223;42.650;23.364;2023-02-10T05:00:55;119.43;;;112.53;;
11098;SDS011;12223;42.650;23.364;2023-02-10T05:03:24;81.13;;;75.40;;
11098;SDS011;12223;42.650;23.364;2023-02-10T05:05:51;28.07;;;20.10;;
11098;SDS011;12223;42.650;23.364;2023-02-10T05:08:18;59.07;;;53.47;;
11098;SDS011;12223;42.650;23.364;2023-02-10T05:10:47;111.30;;;104.10;;
11098;SDS011;12223;42.650;23.364;2023-02-10T05:13:15;152.47;;;143.07;;
11098;SDS011;12223;42.650;23.364;2023-02-10T05:15:41;139.63;;;131.80;;
11098;SDS011;12223;42.650;23.364;2023-02-10T05:18:08;133.20;;;126.13;;
11098;SDS011;12223;42.650;23.364;2023-02-10T05:20:37;132.70;;;124.57;;
11098;SDS011;12223;42.650;23.364;2023-02-10T05:23:03;245.93;;;232.63;;
11098;SDS011;12223;42.650;23.364;2023-02-10T05:25:30;153.57;;;144.83;;
11098;SDS011;12223;42.650;23.364;2023-02-10T05:27:57;103.77;;;97.13;;
11098;SDS011;12223;42.650;23.364;2023-02-10T05:30:24;154.20;;;145.57;;
11098;SDS011;12223;42.650;23.364;2023-02-10T05:32:51;175.17;;;165.43;;
11098;SDS011;12223;42.650;23.364;2023-02-10T05:35:18;97.77;;;91.13;;
11098;SDS011;12223;42.650;23.364;2023-02-10T05:37:46;114.17;;;106.93;;
11098;SDS011;12223;42.650;23.364;2023-02-10T05:40:13;58.83;;;53.47;;
11098;SDS011;12223;42.650;23.364;2023-02-10T05:42:39;103.23;;;96.57;;
11098;SDS011;12223;42.650;23.364;2023-02-10T05:45:06;122.53;;;115.30;;
11098;SDS011;12223;42.650;23.364;2023-02-10T05:47:34;110.47;;;103.10;;
11098;SDS011;12223;42.650;23.364;2023-02-10T05:50:00;175.23;;;165.70;;
11098;SDS011;12223;42.650;23.364;2023-02-10T05:52:27;70.17;;;63.97;;
11098;SDS011;12223;42.650;23.364;2023-02-10T05:54:56;55.27;;;38.40;;
11098;SDS011;12223;42.650;23.364;2023-02-10T05:57:22;50.63;;;27.37;;
11098;SDS011;12223;42.650;23.364;2023-02-10T05:59:49;48.43;;;27.97;;
11098;SDS011;12223;42.650;23.364;2023-02-10T06:02:16;48.70;;;35.50;;
11098;SDS011;12223;42.650;23.364;2023-02-10T06:04:43;29.27;;;23.73;;
11098;SDS011;12223;42.650;23.364;2023-02-10T06:07:09;34.83;;;24.43;;
11098;SDS011;12223;42.650;23.364;2023-02-10T06:09:36;30.63;;;24.70;;
11098;SDS011;12223;42.650;23.364;2023-02-10T06:12:06;41.23;;;27.93;;
11098;SDS011;12223;42.650;23.364;2023-02-10T06:14:34;37.77;;;25.40;;
11098;SDS011;12223;42.650;23.364;2023-02-10T06:17:03;37.63;;;25.77;;
11098;SDS011;12223;42.650;23.364;2023-02-10T06:19:33;31.53;;;20.93;;
11098;SDS011;12223;42.650;23.364;2023-02-10T06:22:00;30.27;;;19.70;;
11098;SDS011;12223;42.650;23.364;2023-02-10T06:24:27;34.20;;;21.83;;
11098;SDS011;12223;42.650;23.364;2023-02-10T06:26:55;39.10;;;25.47;;
11098;SDS011;12223;42.650;23.364;2023-02-10T06:29:23;42.53;;;26.03;;
11098;SDS011;12223;42.650;23.364;2023-02-10T06:31:50;39.37;;;23.83;;
11098;SDS011;12223;42.650;23.364;2023-02-10T06:34:17;33.17;;;23.67;;
11098;SDS011;12223;42.650;23.364;2023-02-10T06:36:44;34.50;;;21.73;;
11098;SDS011;12223;42.650;23.364;2023-02-10T06:39:10;30.07;;;22.37;;
11098;SDS011;12223;42.650;23.364;2023-02-10T06:41:37;27.30;;;20.47;;
11098;SDS011;12223;42.650;23.364;2023-02-10T06:44:04;27.60;;;21.53;;
11098;SDS011;12223;42.650;23.364;2023-02-10T06:46:32;28.00;;;20.13;;
11098;SDS011;12223;42.650;23.364;2023-02-10T06:48:59;27.77;;;21.27;;
11098;SDS011;12223;42.650;23.364;2023-02-10T06:51:27;24.67;;;19.10;;
11098;SDS011;12223;42.650;23.364;2023-02-10T06:53:54;23.27;;;17.80;;
11098;SDS011;12223;42.650;23.364;2023-02-10T06:56:21;20.07;;;16.90;;
11098;SDS011;12223;42.650;23.364;2023-02-10T06:58:48;23.30;;;18.73;;
11098;SDS011;12223;42.650;23.364;2023-02-10T07:01:16;23.70;;;19.08;;
11098;SDS011;12223;42.650;23.364;2023-02-10T07:03:45;26.52;;;18.88;;
11098;SDS011;12223;42.650;23.364;2023-02-10T07:06:11;26.80;;;19.92;;
11098;SDS011;12223;42.650;23.364;2023-02-10T07:08:38;27.08;;;21.10;;
11098;SDS011;12223;42.650;23.364;2023-02-10T07:11:05;34.90;;;22.02;;
11098;SDS011;12223;42.650;23.364;2023-02-10T07:13:32;30.42;;;22.58;;
11098;SDS011;12223;42.650;23.364;2023-02-10T07:15:58;32.30;;;25.00;;
11098;SDS011;12223;42.650;23.364;2023-02-10T07:18:25;29.98;;;24.55;;
11098;SDS011;12223;42.650;23.364;2023-02-10T07:20:56;31.77;;;24.83;;
11098;SDS011;12223;42.650;23.364;2023-02-10T07:23:23;29.70;;;24.40;;
11098;SDS011;12223;42.650;23.364;2023-02-10T07:25:50;30.70;;;24.58;;
11098;SDS011;12223;42.650;23.364;2023-02-10T07:28:16;28.55;;;23.10;;
11098;SDS011;12223;42.650;23.364;2023-02-10T07:30:43;30.23;;;22.70;;
11098;SDS011;12223;42.650;23.364;2023-02-10T07:33:10;31.02;;;22.92;;
11098;SDS011;12223;42.650;23.364;2023-02-10T07:35:37;32.58;;;22.30;;
11098;SDS011;12223;42.650;23.364;2023-02-10T07:38:05;26.97;;;21.47;;
11098;SDS011;12223;42.650;23.364;2023-02-10T07:40:32;32.50;;;22.63;;
11098;SDS011;12223;42.650;23.364;2023-02-10T07:42:59;33.57;;;24.27;;
11098;SDS011;12223;42.650;23.364;2023-02-10T07:45:26;35.83;;;25.33;;
11098;SDS011;12223;42.650;23.364;2023-02-10T07:47:55;35.27;;;24.73;;
11098;SDS011;12223;42.650;23.364;2023-02-10T07:50:22;27.40;;;21.07;;
11098;SDS011;12223;42.650;23.364;2023-02-10T07:52:49;30.07;;;22.37;;
11098;SDS011;12223;42.650;23.364;2023-02-10T07:55:17;29.73;;;23.33;;
11098;SDS011;12223;42.650;23.364;2023-02-10T07:57:44;24.10;;;18.87;;
11098;SDS011;12223;42.650;23.364;2023-02-10T08:00:11;29.67;;;21.30;;
11098;SDS011;12223;42.650;23.364;2023-02-10T08:02:39;27.63;;;21.30;;
11098;SDS011;12223;42.650;23.364;2023-02-10T08:05:06;27.03;;;18.47;;
11098;SDS011;12223;42.650;23.364;2023-02-10T08:07:33;25.67;;;19.20;;
11098;SDS011;12223;42.650;23.364;2023-02-10T08:10:00;30.90;;;20.65;;
11098;SDS011;12223;42.650;23.364;2023-02-10T08:12:28;27.98;;;21.80;;
11098;SDS011;12223;42.650;23.364;2023-02-10T08:14:55;27.88;;;18.88;;
11098;SDS011;12223;42.650;23.364;2023-02-10T08:17:22;28.88;;;20.08;;
11098;SDS011;12223;42.650;23.364;2023-02-10T08:19:49;26.67;;;18.67;;
11098;SDS011;12223;42.650;23.364;2023-02-10T08:22:15;23.97;;;18.47;;
11098;SDS011;12223;42.650;23.364;2023-02-10T08:24:42;25.73;;;21.23;;
11098;SDS011;12223;42.650;23.364;2023-02-10T08:27:09;33.37;;;21.67;;
11098;SDS011;12223;42.650;23.364;2023-02-10T08:29:37;28.67;;;25.70;;
11098;SDS011;12223;42.650;23.364;2023-02-10T08:32:04;24.17;;;18.03;;
11098;SDS011;12223;42.650;23.364;2023-02-10T08:34:31;22.60;;;19.90;;
11098;SDS011;12223;42.650;23.364;2023-02-10T08:36:58;27.20;;;19.50;;
11098;SDS011;12223;42.650;23.364;2023-02-10T08:39:26;25.73;;;17.97;;
11098;SDS011;12223;42.650;23.364;2023-02-10T08:41:53;24.30;;;18.30;;
11098;SDS011;12223;42.650;23.364;2023-02-10T08:44:20;23.17;;;19.50;;
11098;SDS011;12223;42.650;23.364;2023-02-10T08:46:48;21.83;;;16.30;;
11098;SDS011;12223;42.650;23.364;2023-02-10T08:49:15;23.47;;;17.80;;
11098;SDS011;12223;42.650;23.364;2023-02-10T08:51:42;31.87;;;19.00;;
11098;SDS011;12223;42.650;23.364;2023-02-10T08:54:08;30.07;;;20.47;;
11098;SDS011;12223;42.650;23.364;2023-02-10T08:56:35;27.17;;;19.00;;
11098;SDS011;12223;42.650;23.364;2023-02-10T08:59:02;28.17;;;18.90;;
11098;SDS011;12223;42.650;23.364;2023-02-10T09:01:29;30.67;;;19.30;;
11098;SDS011;12223;42.650;23.364;2023-02-10T09:03:57;33.67;;;19.07;;
11098;SDS011;12223;42.650;23.364;2023-02-10T09:06:25;28.67;;;20.53;;
11098;SDS011;12223;42.650;23.364;2023-02-10T09:08:53;26.07;;;22.37;;
11098;SDS011;12223;42.650;23.364;2023-02-10T09:11:21;27.07;;;19.57;;
11098;SDS011;12223;42.650;23.364;2023-02-10T09:13:49;26.27;;;20.90;;
11098;SDS011;12223;42.650;23.364;2023-02-10T09:16:16;27.30;;;19.00;;
11098;SDS011;12223;42.650;23.364;2023-02-10T09:18:43;26.27;;;17.37;;
11098;SDS011;12223;42.650;23.364;2023-02-10T09:21:11;30.70;;;20.07;;
11098;SDS011;12223;42.650;23.364;2023-02-10T09:23:38;28.33;;;19.27;;
11098;SDS011;12223;42.650;23.364;2023-02-10T09:26:05;42.17;;;21.70;;
11098;SDS011;12223;42.650;23.364;2023-02-10T09:28:32;31.70;;;18.03;;
11098;SDS011;12223;42.650;23.364;2023-02-10T09:30:58;22.33;;;15.10;;
11098;SDS011;12223;42.650;23.364;2023-02-10T09:33:25;24.67;;;16.57;;
11098;SDS011;12223;42.650;23.364;2023-02-10T09:35:52;24.60;;;16.03;;
11098;SDS011;12223;42.650;23.364;2023-02-10T09:38:21;29.37;;;14.53;;
11098;SDS011;12223;42.650;23.364;2023-02-10T09:40:49;21.90;;;16.37;;
11098;SDS011;12223;42.650;23.364;2023-02-10T09:43:42;22.60;;;16.00;;
11098;SDS011;12223;42.650;23.364;2023-02-10T09:46:27;29.80;;;20.27;;
11098;SDS011;12223;42.650;23.364;2023-02-10T09:49:06;31.07;;;24.90;;
11098;SDS011;12223;42.650;23.364;2023-02-10T09:51:47;18.27;;;14.80;;
11098;SDS011;12223;42.650;23.364;2023-02-10T09:54:23;26.03;;;19.00;;
11098;SDS011;12223;42.650;23.364;2023-02-10T09:56:56;29.33;;;24.23;;
11098;SDS011;12223;42.650;23.364;2023-02-10T09:59:24;28.00;;;22.53;;
11098;SDS011;12223;42.650;23.364;2023-02-10T10:01:52;32.23;;;27.40;;
11098;SDS011;12223;42.650;23.364;2023-02-10T10:04:24;32.53;;;29.03;;
11098;SDS011;12223;42.650;23.364;2023-02-10T10:06:54;31.80;;;26.37;;
11098;SDS011;12223;42.650;23.364;2023-02-10T10:09:32;30.00;;;23.17;;
11098;SDS011;12223;42.650;23.364;2023-02-10T10:12:07;31.37;;;21.87;;
11098;SDS011;12223;42.650;23.364;2023-02-10T10:14:38;33.23;;;24.50;;
11098;SDS011;12223;42.650;23.364;2023-02-10T10:17:09;32.80;;;24.53;;
11098;SDS011;12223;42.650;23.364;2023-02-10T10:19:50;32.73;;;27.50;;
11098;SDS011;12223;42.650;23.364;2023-02-10T10:22:30;31.87;;;18.90;;
11098;SDS011;12223;42.650;23.364;2023-02-10T10:25:13;22.57;;;17.13;;
11098;SDS011;12223;42.650;23.364;2023-02-10T10:27:52;25.47;;;20.30;;
11098;SDS011;12223;42.650;23.364;2023-02-10T10:30:29;34.23;;;25.20;;
11098;SDS011;12223;42.650;23.364;2023-02-10T10:33:06;25.87;;;21.27;;
11098;SDS011;12223;42.650;23.364;2023-02-10T10:35:45;43.60;;;39.60;;
11098;SDS011;12223;42.650;23.364;2023-02-10T10:38:15;36.03;;;33.03;;
11098;SDS011;12223;42.650;23.364;2023-02-10T10:40:47;33.00;;;29.43;;
11098;SDS011;12223;42.650;23.364;2023-02-10T10:43:17;33.67;;;28.33;;
11098;SDS011;12223;42.650;23.364;2023-02-10T10:45:50;23.40;;;20.90;;
11098;SDS011;12223;42.650;23.364;2023-02-10T10:48:22;26.57;;;23.23;;
11098;SDS011;12223;42.650;23.364;2023-02-10T10:50:52;26.60;;;23.80;;
11098;SDS011;12223;42.650;23.364;2023-02-10T10:53:23;25.83;;;23.10;;
11098;SDS011;12223;42.650;23.364;2023-02-10T10:56:03;27.10;;;24.03;;
11098;SDS011;12223;42.650;23.364;2023-02-10T10:58:35;27.77;;;24.33;;
11098;SDS011;12223;42.650;23.364;2023-02-10T11:01:04;28.07;;;25.03;;
11098;SDS011;12223;42.650;23.364;2023-02-10T11:03:31;27.20;;;24.43;;
11098;SDS011;12223;42.650;23.364;2023-02-10T11:06:00;28.33;;;23.07;;
11098;SDS011;12223;42.650;23.364;2023-02-10T11:08:32;26.93;;;24.20;;
11098;SDS011;12223;42.650;23.364;2023-02-10T11:11:04;25.13;;;19.73;;
11098;SDS011;12223;42.650;23.364;2023-02-10T11:13:35;24.37;;;19.67;;
11098;SDS011;12223;42.650;23.364;2023-02-10T11:16:05;32.13;;;21.70;;
11098;SDS011;12223;42.650;23.364;2023-02-10T11:18:36;27.63;;;18.30;;
11098;SDS011;12223;42.650;23.364;2023-02-10T11:21:05;22.80;;;18.07;;
11098;SDS011;12223;42.650;23.364;2023-02-10T11:23:36;26.20;;;18.70;;
11098;SDS011;12223;42.650;23.364;2023-02-10T11:26:18;25.30;;;19.53;;
11098;SDS011;12223;42.650;23.364;2023-02-10T11:28:48;27.10;;;17.83;;
11098;SDS011;12223;42.650;23.364;2023-02-10T11:31:22;25.77;;;19.30;;
11098;SDS011;12223;42.650;23.364;2023-02-10T11:33:57;23.70;;;19.30;;
11098;SDS011;12223;42.650;23.364;2023-02-10T11:36:30;30.70;;;19.53;;
11098;SDS011;12223;42.650;23.364;2023-02-10T11:39:03;37.60;;;19.07;;
11098;SDS011;12223;42.650;23.364;2023-02-10T11:41:33;27.77;;;20.93;;
11098;SDS011;12223;42.650;23.364;2023-02-10T11:44:00;30.27;;;19.93;;
11098;SDS011;12223;42.650;23.364;2023-02-10T11:46:30;22.40;;;18.23;;
11098;SDS011;12223;42.650;23.364;2023-02-10T11:48:58;26.13;;;20.33;;
11098;SDS011;12223;42.650;23.364;2023-02-10T11:51:27;27.20;;;19.00;;
11098;SDS011;12223;42.650;23.364;2023-02-10T11:53:55;26.23;;;19.20;;
11098;SDS011;12223;42.650;23.364;2023-02-10T11:56:25;21.00;;;16.60;;
11098;SDS011;12223;42.650;23.364;2023-02-10T11:59:21;27.67;;;18.93;;
11098;SDS011;12223;42.650;23.364;2023-02-10T12:01:56;27.00;;;18.83;;
11098;SDS011;12223;42.650;23.364;2023-02-10T12:04:39;28.33;;;18.27;;
11098;SDS011;12223;42.650;23.364;2023-02-10T12:07:23;20.87;;;15.77;;
11098;SDS011;12223;42.650;23.364;2023-02-10T12:09:57;21.93;;;15.57;;
11098;SDS011;12223;42.650;23.364;2023-02-10T12:12:30;23.37;;;16.60;;
11098;SDS011;12223;42.650;23.364;2023-02-10T12:15:06;23.63;;;17.27;;
11098;SDS011;12223;42.650;23.364;2023-02-10T12:17:45;31.53;;;20.77;;
11098;SDS011;12223;42.650;23.364;2023-02-10T12:20:23;24.47;;;18.40;;
11098;SDS011;12223;42.650;23.364;2023-02-10T12:23:08;24.13;;;17.53;;
11098;SDS011;12223;42.650;23.364;2023-02-10T12:25:49;26.20;;;18.70;;
11098;SDS011;12223;42.650;23.364;2023-02-10T12:28:22;30.40;;;19.87;;
11098;SDS011;12223;42.650;23.364;2023-02-10T12:31:03;37.53;;;19.10;;
11098;SDS011;12223;42.650;23.364;2023-02-10T12:33:42;23.00;;;17.27;;
11098;SDS011;12223;42.650;23.364;2023-02-10T12:36:21;28.53;;;19.33;;
11098;SDS011;12223;42.650;23.364;2023-02-10T12:38:56;30.77;;;18.73;;
11098;SDS011;12223;42.650;23.364;2023-02-10T12:41:34;25.30;;;18.73;;
11098;SDS011;12223;42.650;23.364;2023-02-10T12:44:11;25.70;;;20.43;;
11098;SDS011;12223;42.650;23.364;2023-02-10T12:46:56;25.50;;;19.07;;
11098;SDS011;12223;42.650;23.364;2023-02-10T12:49:34;27.97;;;18.27;;
11098;SDS011;12223;42.650;23.364;2023-02-10T12:52:15;27.40;;;18.43;;
11098;SDS011;12223;42.650;23.364;2023-02-10T12:54:48;23.43;;;18.17;;
11098;SDS011;12223;42.650;23.364;2023-02-10T12:57:20;36.03;;;18.17;;
11098;SDS011;12223;42.650;23.364;2023-02-10T12:59:55;26.47;;;17.97;;
11098;SDS011;12223;42.650;23.364;2023-02-10T13:02:28;38.20;;;17.57;;
11098;SDS011;12223;42.650;23.364;2023-02-10T13:05:04;26.73;;;17.20;;
11098;SDS011;12223;42.650;23.364;2023-02-10T13:07:37;28.43;;;18.87;;
11098;SDS011;12223;42.650;23.364;2023-02-10T13:10:16;29.20;;;16.47;;
11098;SDS011;12223;42.650;23.364;2023-02-10T13:12:50;23.07;;;15.73;;
11098;SDS011;12223;42.650;23.364;2023-02-10T13:15:21;24.53;;;16.63;;
11098;SDS011;12223;42.650;23.364;2023-02-10T13:17:52;21.60;;;16.63;;
11098;SDS011;12223;42.650;23.364;2023-02-10T13:20:22;28.77;;;17.03;;
11098;SDS011;12223;42.650;23.364;2023-02-10T13:22:57;23.93;;;17.30;;
11098;SDS011;12223;42.650;23.364;2023-02-10T13:25:34;25.97;;;16.13;;
11098;SDS011;12223;42.650;23.364;2023-02-10T13:28:13;28.30;;;17.17;;
11098;SDS011;12223;42.650;23.364;2023-02-10T13:30:54;23.00;;;16.70;;
11098;SDS011;12223;42.650;23.364;2023-02-10T13:33:35;24.30;;;16.17;;
11098;SDS011;12223;42.650;23.364;2023-02-10T13:36:12;26.23;;;16.87;;
11098;SDS011;12223;42.650;23.364;2023-02-10T13:38:45;24.87;;;17.93;;
11098;SDS011;12223;42.650;23.364;2023-02-10T13:41:23;28.90;;;16.50;;
11098;SDS011;12223;42.650;23.364;2023-02-10T13:47:12;23.13;;;16.27;;
11098;SDS011;12223;42.650;23.364;2023-02-10T13:49:51;33.70;;;16.90;;
11098;SDS011;12223;42.650;23.364;2023-02-10T13:52:21;25.73;;;19.73;;
11098;SDS011;12223;42.650;23.364;2023-02-10T13:54:53;27.03;;;17.73;;
11098;SDS011;12223;42.650;23.364;2023-02-10T13:57:24;24.70;;;17.80;;
11098;SDS011;12223;42.650;23.364;2023-02-10T13:59:53;27.47;;;17.87;;
11098;SDS011;12223;42.650;23.364;2023-02-10T14:02:37;26.37;;;16.97;;
11098;SDS011;12223;42.650;23.364;2023-02-10T14:07:52;29.93;;;18.33;;
11098;SDS011;12223;42.650;23.364;2023-02-10T14:13:04;23.80;;;17.37;;
11098;SDS011;12223;42.650;23.364;2023-02-10T14:15:53;31.60;;;18.80;;
11098;SDS011;12223;42.650;23.364;2023-02-10T14:18:23;29.83;;;20.27;;
11098;SDS011;12223;42.650;23.364;2023-02-10T14:20:58;28.27;;;19.57;;
11098;SDS011;12223;42.650;23.364;2023-02-10T14:23:26;30.70;;;20.40;;
11098;SDS011;12223;42.650;23.364;2023-02-10T14:25:58;30.27;;;20.67;;
11098;SDS011;12223;42.650;23.364;2023-02-10T14:28:27;27.60;;;20.57;;
11098;SDS011;12223;42.650;23.364;2023-02-10T14:30:59;26.67;;;19.00;;
11098;SDS011;12223;42.650;23.364;2023-02-10T14:33:29;34.60;;;19.07;;